UWKDUWKE

Guest
Details From UWKD - KAZAN
To UWKE - BEGISHEVO
Flight Number -
Tags generated
Created
Modified
Stats Distance 95 nm / 177 km
Max Altitude 0 ft / 0 m
Waypoints 2
Social Downloads 1
Likes 0
Share VATSIM

Download

Looking for another format? Having issues loading an existing format? Contact us
Advertisement - Login to hide

Notes

Basic altitude profile: - Ascent Rate: 300ft/min - Ascent Speed: 100kts - Cruise Altitude: 1500ft - Cruise Speed: 140kts - Descent Rate: 300ft/min - Descent Speed: 100kts Options: - Use NATs: no - Use PACOTS: no - Use low airways: yes - Use high airways: no

Route

UWKD UWKE

ID Type Via Altitude Latitude Longitude Leg Dist Tot Dist Heading (true) Name
O UWKD APT - 0 ft / 0 m 55.60654˚ 49.27969˚ - 0 nm - KAZAN
O UWKE APT - 0 ft / 0 m 55.56376˚ 52.08979˚ 95 nm 95 nm 90° / 93° BEGISHEVO

Altitude Profile

Advertisement - Login to hide

UWKD

Details ICAO UWKD (KZN)
Name KAZAN
Region Russia
Timezone Europe/Moscow (UTC+3.0)
Stats Elevation 411 ft / 125 m (AMSL)
Location 55.606544° 49.279689°
Runways 2
Magnetic Variation 13.333° E

METAR

UWKD 220030Z 25001MPS CAVOK 05/01 Q1030 R29/70D NOSIG RMK QFE761/1015

Decode

TAF

Not found

Departure Runways

ID Width Length Bearing (true) Bearing (mag) Surface Threshold Offset Overrun Length
11L 144 ft / 44 m 12,189 ft / 3,715 m 126.46° 113.13° Concrete 837 ft / 255 m 0 ft / 0 m
11R 148 ft / 45 m 8,174 ft / 2,492 m 124.48° 111.15° Concrete 0 ft / 0 m 180 ft / 55 m
29L 148 ft / 45 m 8,174 ft / 2,492 m 304.51° 291.18° Concrete 0 ft / 0 m 180 ft / 55 m
29R 144 ft / 44 m 12,189 ft / 3,715 m 306.50° 293.17° Concrete 0 ft / 0 m 160 ft / 49 m

UWKE

Details ICAO UWKE (NBC)
Name BEGISHEVO
Region Russia
Timezone Europe/Moscow (UTC+3.0)
Stats Elevation 643 ft / 196 m (AMSL)
Location 55.563755° 52.089791°
Runways 2
Magnetic Variation 13.643° E

METAR

UWKE 220030Z 00000MPS CAVOK 08/01 Q1028 R03/090070 NOSIG RMK QFE754/1006

Decode

TAF

TAF UWKE 212245Z 2200/2224 VRB01MPS 9999 SCT020 TEMPO 2200/2206 21003MPS 3100 BR TEMPO 2206/2218 26003G09MPS

Decode

Destination Runways

ID Width Length Bearing (true) Bearing (mag) Surface Threshold Offset Overrun Length
03 190 ft / 58 m 5,609 ft / 1,710 m 47.09° 33.45° Grass 0 ft / 0 m 0 ft / 0 m
04 138 ft / 42 m 8,149 ft / 2,484 m 46.89° 33.25° Asphalt 0 ft / 0 m 170 ft / 52 m
21 190 ft / 58 m 5,609 ft / 1,710 m 227.11° 213.47° Grass 0 ft / 0 m 0 ft / 0 m
22 138 ft / 42 m 8,149 ft / 2,484 m 226.91° 213.27° Asphalt 0 ft / 0 m 190 ft / 58 m

Approach Navaids

Runway Type Ident Frequency Range Bearing (true) Bearing (mag) Slope Elevation
22 Localiser INK 109.90 MHz 18 nm / 33 km 226.51° 212.87° - 643 ft / 196 m (AMSL)
22 Glidescope INK 109.90 MHz 10 nm / 19 km 226.90° 213.26° 2.70° 643 ft / 196 m (AMSL)

Popular Alternatives